Time;durP1;ratioP1;P1;durP2;ratioP2;P2;SDS_P1;SDS_P2;PMS_P1;PMS_P2;Temp;Humidity;BMP_temperature;BMP_pressure;BME280_temperature;BME280_humidity;BME280_pressure;Samples;Min_cycle;Max_cycle;Signal;HPM_P1;HPM_P2
2022/10/08 00:01:06;;;;;;;2.88;1.27;;;;;;;15.02;78.61;100730.41;5018682;28;20177;-66
2022/10/08 00:03:35;;;;;;;4.97;1.00;;;;;;;14.98;78.58;100726.91;5021727;28;20041;-67
2022/10/08 00:06:07;;;;;;;0.93;0.60;;;;;;;14.94;78.87;100726.88;5022039;28;20064;-66
2022/10/08 00:08:36;;;;;;;1.90;0.88;;;;;;;14.97;78.36;100728.06;5026943;28;20099;-67
2022/10/08 00:11:07;;;;;;;6.63;1.02;;;;;;;14.87;78.93;100729.56;5012570;28;20037;-66
2022/10/08 00:13:41;;;;;;;3.10;0.95;;;;;;;14.90;78.99;100714.47;5021343;28;20037;-67
2022/10/08 00:16:14;;;;;;;1.67;0.93;;;;;;;14.89;78.72;100718.34;5030442;28;20041;-67
2022/10/08 00:18:41;;;;;;;2.60;1.20;;;;;;;14.88;78.62;100714.09;5030065;28;20033;-66
2022/10/08 00:21:15;;;;;;;1.75;0.77;;;;;;;14.74;79.10;100716.72;5027858;28;20080;-66
2022/10/08 00:23:47;;;;;;;2.53;0.75;;;;;;;14.76;79.30;100709.78;5023501;28;20048;-66
2022/10/08 00:26:25;;;;;;;3.92;0.90;;;;;;;14.72;79.04;100719.84;5022795;28;20417;-67
2022/10/08 00:29:03;;;;;;;1.35;0.70;;;;;;;14.77;79.24;100700.47;5012741;28;20030;-66
2022/10/08 00:31:31;;;;;;;2.28;0.77;;;;;;;14.85;78.91;100706.69;5025019;28;20482;-67
2022/10/08 00:33:59;;;;;;;1.95;0.80;;;;;;;14.74;78.79;100711.31;5030685;28;20426;-67
2022/10/08 00:36:27;;;;;;;1.02;0.68;;;;;;;14.83;78.32;100698.97;5024568;28;20437;-68
2022/10/08 00:39:02;;;;;;;6.70;1.23;;;;;;;14.73;78.63;100701.63;5018782;28;20029;-67
2022/10/08 00:41:33;;;;;;;1.95;0.90;;;;;;;14.43;79.49;100691.03;5024556;28;20548;-67
2022/10/08 00:44:03;;;;;;;1.92;0.98;;;;;;;14.36;80.56;100683.63;5028585;28;20482;-66
2022/10/08 00:46:47;;;;;;;1.08;0.70;;;;;;;14.31;80.41;100684.00;5025993;28;20159;-65
2022/10/08 00:49:18;;;;;;;6.20;1.00;;;;;;;14.35;80.17;100689.44;5029149;28;20076;-66
2022/10/08 00:51:49;;;;;;;2.25;0.88;;;;;;;14.39;80.09;100684.81;5016845;28;20037;-67
2022/10/08 00:54:16;;;;;;;2.45;1.00;;;;;;;14.35;80.27;100682.09;5021052;28;20498;-66
2022/10/08 00:56:43;;;;;;;1.88;0.90;;;;;;;14.38;80.27;100675.91;5030705;28;20025;-66
2022/10/08 00:59:11;;;;;;;6.38;1.10;;;;;;;14.38;80.68;100681.31;5023421;28;20029;-66
2022/10/08 01:01:40;;;;;;;5.15;1.23;;;;;;;14.25;80.53;100671.94;5023819;28;20489;-67
2022/10/08 01:04:07;;;;;;;5.75;1.00;;;;;;;14.33;80.50;100670.06;5028098;28;20091;-66
2022/10/08 01:06:46;;;;;;;5.93;1.13;;;;;;;14.30;80.19;100651.88;5019591;28;20044;-67
2022/10/08 01:09:20;;;;;;;2.72;1.00;;;;;;;14.38;79.95;100651.53;5024010;28;20367;-66
2022/10/08 01:11:48;;;;;;;2.08;0.88;;;;;;;14.34;80.84;100649.97;5022307;28;20072;-66
2022/10/08 01:14:41;;;;;;;1.98;1.00;;;;;;;14.45;79.76;100648.88;5026518;28;20104;-66
2022/10/08 01:17:30;;;;;;;2.65;0.95;;;;;;;14.37;79.88;100655.41;5023269;28;20029;-66
2022/10/08 01:20:27;;;;;;;3.08;0.98;;;;;;;14.29;80.30;100661.16;5029472;28;20025;-67
2022/10/08 01:23:17;;;;;;;3.92;0.88;;;;;;;14.16;80.22;100649.84;5016764;28;20124;-66
2022/10/08 01:25:48;;;;;;;4.55;0.80;;;;;;;14.18;80.81;100658.38;5019536;28;20537;-66
2022/10/08 01:28:22;;;;;;;4.30;1.17;;;;;;;14.15;81.19;100647.53;5023887;28;20040;-66
2022/10/08 01:31:11;;;;;;;2.65;0.93;;;;;;;14.22;80.73;100642.91;5016358;28;20029;-66
2022/10/08 01:33:57;;;;;;;2.42;0.70;;;;;;;14.29;80.76;100640.25;5031588;28;20132;-66
2022/10/08 01:36:26;;;;;;;8.75;1.05;;;;;;;14.13;80.87;100641.69;5030577;28;20033;-66
2022/10/08 01:39:00;;;;;;;2.22;0.82;;;;;;;14.18;80.99;100641.34;5027484;28;20025;-66
2022/10/08 01:41:28;;;;;;;5.57;1.00;;;;;;;14.12;81.18;100643.63;5020973;28;20159;-66
2022/10/08 01:44:28;;;;;;;3.38;0.80;;;;;;;13.97;82.01;100635.78;5029505;28;20041;-67
2022/10/08 01:46:59;;;;;;;1.77;0.77;;;;;;;14.07;81.93;100635.09;5024562;23;20053;-66
2022/10/08 01:49:29;;;;;;;7.10;1.15;;;;;;;14.04;81.57;100625.78;5031686;28;20125;-66
2022/10/08 01:52:02;;;;;;;2.08;0.90;;;;;;;14.19;81.08;100626.63;5033212;28;20386;-66
2022/10/08 01:54:31;;;;;;;1.20;0.88;;;;;;;14.16;80.92;100630.88;5030864;28;20037;-66
2022/10/08 01:57:00;;;;;;;5.60;1.05;;;;;;;14.09;81.24;100632.78;5008768;28;20116;-66
2022/10/08 01:59:35;;;;;;;3.88;0.80;;;;;;;13.97;81.60;100620.34;5033306;28;20033;-66
2022/10/08 02:02:09;;;;;;;1.13;0.55;;;;;;;14.00;81.65;100619.56;5029540;28;20148;-66
2022/10/08 02:04:38;;;;;;;2.92;1.00;;;;;;;14.05;81.55;100613.03;5042189;28;20516;-66
2022/10/08 02:07:07;;;;;;;2.60;0.90;;;;;;;13.98;81.93;100611.03;5029320;28;20088;-66
2022/10/08 02:09:39;;;;;;;3.10;0.63;;;;;;;14.08;81.50;100614.97;5016859;28;20025;-66
2022/10/08 02:12:06;;;;;;;1.52;0.90;;;;;;;14.08;81.22;100604.91;5036408;28;20611;-66
2022/10/08 02:14:34;;;;;;;4.78;0.75;;;;;;;14.09;80.98;100603.75;5030106;28;20108;-66
2022/10/08 02:17:15;;;;;;;4.68;1.13;;;;;;;13.93;81.93;100611.41;5027805;28;20075;-66
2022/10/08 02:19:45;;;;;;;3.67;1.02;;;;;;;13.76;82.70;100609.38;5029363;28;20068;-66
2022/10/08 02:22:17;;;;;;;1.90;0.88;;;;;;;13.87;82.69;100625.66;5039345;28;20041;-66
2022/10/08 02:24:49;;;;;;;7.95;1.67;;;;;;;13.75;83.25;100617.84;5028826;28;20033;-66
2022/10/08 02:27:18;;;;;;;6.43;1.10;;;;;;;13.80;83.22;100615.56;5036323;28;20469;-66
2022/10/08 02:29:57;;;;;;;3.95;0.98;;;;;;;13.80;83.38;100618.28;5032424;28;20029;-66
2022/10/08 02:32:40;;;;;;;4.47;1.10;;;;;;;13.70;83.50;100608.16;5031548;28;20041;-66
2022/10/08 02:35:24;;;;;;;1.98;0.90;;;;;;;13.72;83.24;100624.03;5032258;28;20025;-66
2022/10/08 02:38:00;;;;;;;3.88;1.15;;;;;;;13.78;83.53;100623.28;5042703;28;20037;-66
2022/10/08 02:40:29;;;;;;;3.75;0.90;;;;;;;13.79;83.34;100619.44;5030507;28;20041;-66
2022/10/08 02:43:00;;;;;;;4.07;1.80;;;;;;;13.77;83.15;100616.31;5030398;28;20038;-66
2022/10/08 02:45:52;;;;;;;1.83;1.08;;;;;;;13.70;84.05;100615.50;5032824;28;20435;-66
2022/10/08 02:48:33;;;;;;;2.45;0.98;;;;;;;13.63;84.51;100620.88;5021820;28;20041;-66
2022/10/08 02:51:09;;;;;;;6.30;1.20;;;;;;;13.74;84.24;100610.91;5030584;28;20072;-66
2022/10/08 02:53:37;;;;;;;1.40;0.75;;;;;;;13.85;83.90;100615.22;5031343;28;20039;-66
2022/10/08 02:56:06;;;;;;;3.90;1.27;;;;;;;13.83;83.58;100616.75;5027072;28;20061;-66
2022/10/08 02:58:32;;;;;;;6.07;1.17;;;;;;;13.95;82.84;100617.22;5030078;28;20098;-66
2022/10/08 03:01:07;;;;;;;3.28;1.10;;;;;;;13.99;82.52;100623.44;5026035;28;20442;-67
2022/10/08 03:03:36;;;;;;;4.20;1.35;;;;;;;13.88;82.94;100613.69;5021095;28;20034;-66
2022/10/08 03:06:07;;;;;;;1.45;1.00;;;;;;;13.84;83.75;100618.31;5027689;28;20091;-67
2022/10/08 03:08:34;;;;;;;;;;;;;;;13.73;83.86;100614.75;5025956;28;20084;-67
2022/10/08 03:10:59;;;;;;;2.90;1.20;;;;;;;13.68;84.40;100613.19;5015190;28;20435;-66
2022/10/08 03:13:25;;;;;;;2.03;1.02;;;;;;;13.61;84.64;100610.41;5028389;28;20096;-64
2022/10/08 03:15:58;;;;;;;4.00;1.13;;;;;;;13.62;84.92;100613.91;5046841;28;20037;-65
2022/10/08 03:18:25;;;;;;;3.10;1.15;;;;;;;13.69;84.85;100614.72;5012924;28;20044;-66
2022/10/08 03:20:54;;;;;;;4.32;1.55;;;;;;;13.72;84.69;100614.00;5017178;28;20045;-65
2022/10/08 03:23:19;;;;;;;3.40;0.90;;;;;;;13.64;84.78;100606.97;5028005;28;20040;-65
2022/10/08 03:25:44;;;;;;;4.28;1.33;;;;;;;13.76;84.89;100617.50;5036332;28;20363;-66
2022/10/08 03:28:10;;;;;;;1.00;0.65;;;;;;;13.73;85.02;100610.13;5030795;28;20037;-66
2022/10/08 03:30:36;;;;;;;3.33;1.15;;;;;;;13.80;84.72;100604.72;5025387;28;20099;-65
2022/10/08 03:33:01;;;;;;;2.70;1.08;;;;;;;13.67;85.14;100608.91;5031556;28;20095;-66
2022/10/08 03:35:27;;;;;;;3.70;1.08;;;;;;;13.78;85.39;100612.47;5031414;28;20036;-65
2022/10/08 03:37:52;;;;;;;3.65;1.20;;;;;;;13.87;85.40;100609.44;5024385;28;20069;-65
2022/10/08 03:40:19;;;;;;;5.28;0.60;;;;;;;13.88;84.98;100609.03;5023168;28;20396;-65
2022/10/08 03:42:44;;;;;;;1.95;0.88;;;;;;;13.96;84.89;100613.34;5019967;28;20042;-66
2022/10/08 03:45:10;;;;;;;4.55;1.13;;;;;;;14.07;84.52;100621.53;5014670;28;20038;-65
2022/10/08 03:47:35;;;;;;;3.35;1.17;;;;;;;13.97;84.81;100611.44;5030241;28;20116;-66
2022/10/08 03:50:01;;;;;;;2.83;1.52;;;;;;;14.07;84.35;100616.13;5038205;28;20033;-66
2022/10/08 03:52:26;;;;;;;6.90;1.10;;;;;;;14.08;84.01;100604.91;5030645;28;20063;-65
2022/10/08 03:54:54;;;;;;;2.47;0.88;;;;;;;14.02;84.57;100617.25;5028831;28;20025;-66
2022/10/08 03:57:20;;;;;;;0.65;0.57;;;;;;;14.05;85.06;100616.50;5021566;28;20037;-66
2022/10/08 03:59:45;;;;;;;1.70;1.48;;;;;;;14.12;84.96;100618.47;5026795;28;20124;-65
2022/10/08 04:02:10;;;;;;;4.80;1.10;;;;;;;14.09;84.92;100609.16;5030942;28;20029;-65
2022/10/08 04:04:36;;;;;;;4.03;0.85;;;;;;;14.16;85.12;100603.81;5021838;28;20025;-66
2022/10/08 04:07:01;;;;;;;2.53;0.80;;;;;;;14.31;84.74;100608.16;5026717;28;20124;-66
2022/10/08 04:09:30;;;;;;;2.38;1.00;;;;;;;14.18;84.48;100619.66;5016084;28;20140;-65
2022/10/08 04:11:55;;;;;;;1.40;0.70;;;;;;;14.26;84.45;100619.34;5011127;28;20117;-66
2022/10/08 04:14:20;;;;;;;2.08;1.20;;;;;;;14.33;84.48;100622.09;5028018;28;20132;-66
2022/10/08 04:16:46;;;;;;;2.97;0.93;;;;;;;14.31;85.04;100608.16;5035494;28;20080;-66
2022/10/08 04:19:12;;;;;;;2.80;1.23;;;;;;;14.36;84.34;100618.59;5013012;28;20037;-66
2022/10/08 04:21:38;;;;;;;4.15;0.90;;;;;;;14.40;84.29;100615.94;5015487;28;20050;-66
2022/10/08 04:24:04;;;;;;;5.85;0.95;;;;;;;14.45;84.22;100610.91;5036237;28;20040;-66
2022/10/08 04:26:29;;;;;;;7.07;1.00;;;;;;;14.40;84.46;100610.53;5038134;28;20116;-66
2022/10/08 04:28:55;;;;;;;1.83;1.05;;;;;;;14.40;84.69;100616.69;5029718;28;20072;-66
2022/10/08 04:31:22;;;;;;;0.80;0.75;;;;;;;14.38;85.07;100602.00;5027223;28;20040;-66
2022/10/08 04:33:49;;;;;;;4.30;0.75;;;;;;;14.42;85.02;100602.75;5039849;28;20033;-66
2022/10/08 04:36:17;;;;;;;4.85;1.10;;;;;;;14.36;85.41;100604.31;5011042;28;20030;-67
2022/10/08 04:38:44;;;;;;;3.60;1.60;;;;;;;14.49;84.87;100608.22;5011103;28;20041;-66
2022/10/08 04:41:18;;;;;;;3.75;1.10;;;;;;;14.33;85.42;100611.25;5029109;28;20162;-66
2022/10/08 04:43:44;;;;;;;5.40;2.35;;;;;;;14.39;85.83;100622.50;5023266;28;20398;-66
2022/10/08 04:46:13;;;;;;;2.88;1.20;;;;;;;14.34;85.96;100612.03;5010473;28;20188;-66
2022/10/08 04:48:38;;;;;;;3.85;1.33;;;;;;;14.29;86.43;100607.75;5009695;28;20037;-66
2022/10/08 04:51:06;;;;;;;7.78;1.55;;;;;;;14.40;86.42;100621.34;5027512;28;20033;-65
2022/10/08 04:53:32;;;;;;;7.65;1.63;;;;;;;14.35;86.57;100619.78;5010801;28;20048;-66
2022/10/08 04:56:10;;;;;;;6.55;1.23;;;;;;;14.29;86.77;100615.09;5010427;28;20499;-66
2022/10/08 04:58:36;;;;;;;4.68;1.02;;;;;;;14.42;86.95;100614.38;5010255;28;20460;-66
2022/10/08 05:01:07;;;;;;;1.60;0.88;;;;;;;14.46;86.97;100622.53;5028009;28;20470;-65
2022/10/08 05:03:42;;;;;;;3.85;1.38;;;;;;;14.37;87.05;100616.69;5021251;28;20083;-64
2022/10/08 05:06:08;;;;;;;3.92;1.08;;;;;;;14.43;87.07;100623.28;5018630;28;20037;-66
2022/10/08 05:08:34;;;;;;;4.00;1.67;;;;;;;14.41;86.97;100618.25;5016471;28;20398;-66
2022/10/08 05:11:00;;;;;;;2.97;1.35;;;;;;;14.31;87.86;100624.41;5034223;28;20049;-65
2022/10/08 05:13:31;;;;;;;5.75;1.35;;;;;;;14.36;87.59;100621.31;5029539;28;20065;-65
2022/10/08 05:16:06;;;;;;;6.75;1.30;;;;;;;14.45;87.43;100618.28;5025920;28;20038;-65
2022/10/08 05:18:32;;;;;;;5.10;1.23;;;;;;;14.39;87.72;100614.38;5014278;28;20041;-66
2022/10/08 05:21:15;;;;;;;1.30;0.88;;;;;;;14.29;88.07;100615.88;5031881;28;20042;-66
2022/10/08 05:23:41;;;;;;;2.42;0.80;;;;;;;14.33;87.70;100616.66;5018379;28;20422;-66
2022/10/08 05:26:27;;;;;;;5.40;1.08;;;;;;;14.38;87.64;100613.59;5019583;28;20486;-64
2022/10/08 05:28:58;;;;;;;5.18;1.52;;;;;;;14.32;87.41;100619.78;5031621;28;20030;-64
2022/10/08 05:31:28;;;;;;;5.97;1.52;;;;;;;14.43;87.47;100632.22;5030434;28;20038;-66
2022/10/08 05:33:54;;;;;;;2.35;1.35;;;;;;;14.51;86.95;100634.94;5025032;28;20069;-65
2022/10/08 05:36:25;;;;;;;4.55;1.20;;;;;;;14.55;86.60;100644.66;5032051;28;20072;-64
2022/10/08 05:38:51;;;;;;;2.85;1.02;;;;;;;14.71;86.20;100650.50;5033868;28;20136;-65
2022/10/08 05:41:22;;;;;;;3.47;0.90;;;;;;;14.55;86.83;100650.06;5030166;28;20057;-65
2022/10/08 05:43:47;;;;;;;5.82;1.10;;;;;;;14.57;87.07;100650.47;5043285;28;20037;-66
2022/10/08 05:46:20;;;;;;;2.35;1.25;;;;;;;14.64;87.00;100644.28;5033352;28;20044;-66
2022/10/08 05:48:46;;;;;;;2.63;0.88;;;;;;;14.61;86.55;100651.25;5023407;28;20029;-65
2022/10/08 05:51:16;;;;;;;5.57;1.17;;;;;;;14.51;87.27;100641.13;5025618;28;20444;-67
2022/10/08 05:53:45;;;;;;;5.07;1.15;;;;;;;14.45;87.85;100654.28;5030444;28;20498;-65
2022/10/08 05:56:13;;;;;;;4.03;1.13;;;;;;;14.48;88.00;100662.81;5013234;28;20053;-66
2022/10/08 05:58:39;;;;;;;1.00;0.73;;;;;;;14.32;88.31;100665.81;5017291;28;20121;-65
2022/10/08 06:01:20;;;;;;;4.55;1.20;;;;;;;14.19;88.74;100670.75;5034115;28;20441;-66
2022/10/08 06:03:54;;;;;;;3.13;0.85;;;;;;;14.23;89.14;100682.38;5014345;28;20048;-66
2022/10/08 06:06:21;;;;;;;8.57;1.10;;;;;;;14.34;88.81;100674.34;5028693;28;20041;-66
2022/10/08 06:08:51;;;;;;;4.63;1.20;;;;;;;14.57;88.01;100668.66;5021913;28;20120;-65
2022/10/08 06:11:16;;;;;;;4.82;0.77;;;;;;;14.53;88.10;100678.69;5031426;28;20401;-66
2022/10/08 06:13:42;;;;;;;1.90;1.02;;;;;;;14.63;87.79;100684.19;5026406;28;20114;-66
2022/10/08 06:16:09;;;;;;;5.75;1.63;;;;;;;14.55;87.85;100679.09;5013072;28;20061;-65
2022/10/08 06:18:37;;;;;;;5.00;1.25;;;;;;;14.69;87.38;100690.00;5026802;28;20311;-66
2022/10/08 06:21:08;;;;;;;2.78;1.05;;;;;;;14.70;87.47;100691.53;5030181;28;20100;-66
2022/10/08 06:23:34;;;;;;;4.55;1.25;;;;;;;14.63;87.80;100694.22;5025087;28;20025;-66
2022/10/08 06:26:08;;;;;;;4.15;2.05;;;;;;;14.64;87.74;100690.34;5021823;28;20041;-65
2022/10/08 06:28:35;;;;;;;2.50;1.00;;;;;;;14.67;87.43;100701.22;5031676;28;20040;-66
2022/10/08 06:31:01;;;;;;;2.05;1.00;;;;;;;14.57;87.72;100695.75;5036949;28;20414;-66
2022/10/08 06:33:27;;;;;;;2.58;1.40;;;;;;;14.78;87.44;100703.97;5023654;28;20040;-64
2022/10/08 06:35:52;;;;;;;3.30;1.10;;;;;;;14.74;86.74;100720.22;5018008;28;20025;-66
2022/10/08 06:38:18;;;;;;;2.17;1.20;;;;;;;14.78;87.32;100709.41;5025681;28;20034;-65
2022/10/08 06:40:43;;;;;;;2.63;1.00;;;;;;;14.82;87.38;100696.63;5025513;28;20037;-64
2022/10/08 06:43:13;;;;;;;1.85;0.93;;;;;;;14.93;86.90;100722.63;5038388;28;20038;-66
2022/10/08 06:45:41;;;;;;;3.15;1.05;;;;;;;14.96;86.80;100719.13;5026847;28;20030;-65
2022/10/08 06:48:10;;;;;;;4.43;1.27;;;;;;;15.01;86.24;100715.28;5031917;28;20042;-65
2022/10/08 06:50:37;;;;;;;2.15;1.30;;;;;;;14.86;86.82;100721.81;5032384;28;20114;-66
2022/10/08 06:53:04;;;;;;;1.92;0.95;;;;;;;14.85;87.11;100707.50;5031363;28;20051;-66
2022/10/08 06:55:30;;;;;;;4.40;1.00;;;;;;;15.06;86.55;100709.50;5028885;28;20033;-66
2022/10/08 06:57:56;;;;;;;4.40;1.13;;;;;;;15.08;86.31;100709.88;5030007;28;20390;-65
2022/10/08 07:00:21;;;;;;;2.28;1.05;;;;;;;15.00;86.50;100728.06;5033846;28;20094;-66
2022/10/08 07:02:50;;;;;;;4.95;1.35;;;;;;;15.06;86.09;100740.09;5029432;28;20490;-66
2022/10/08 07:05:22;;;;;;;3.35;1.25;;;;;;;14.97;86.75;100731.56;5021114;28;20483;-66
2022/10/08 07:07:47;;;;;;;2.22;0.90;;;;;;;14.91;86.96;100754.78;5031741;28;20452;-66
2022/10/08 07:10:13;;;;;;;3.55;1.23;;;;;;;14.97;87.07;100747.84;5021755;28;20022;-66
2022/10/08 07:12:38;;;;;;;3.63;1.20;;;;;;;15.01;87.04;100761.41;5031941;28;20028;-65
2022/10/08 07:15:04;;;;;;;2.67;1.02;;;;;;;15.01;87.29;100750.56;5024452;28;20037;-66
2022/10/08 07:17:29;;;;;;;4.55;1.30;;;;;;;15.09;87.07;100763.78;5019411;28;20482;-66
2022/10/08 07:19:56;;;;;;;6.45;1.60;;;;;;;15.08;87.48;100753.28;5021910;28;20060;-65
2022/10/08 07:22:22;;;;;;;5.47;1.15;;;;;;;15.05;88.08;100756.78;5034356;28;20075;-65
2022/10/08 07:24:48;;;;;;;2.92;1.00;;;;;;;15.18;87.69;100755.25;5025493;28;20072;-66
2022/10/08 07:27:14;;;;;;;2.28;1.10;;;;;;;15.27;88.14;100758.41;5017271;28;20029;-65
2022/10/08 07:29:39;;;;;;;3.30;1.23;;;;;;;15.53;87.75;100763.53;5025642;28;20021;-66
2022/10/08 07:32:05;;;;;;;1.35;0.77;;;;;;;15.66;87.54;100764.69;5043050;28;20032;-66
2022/10/08 07:34:34;;;;;;;1.90;0.90;;;;;;;15.85;87.29;100767.03;5033242;28;20040;-66
2022/10/08 07:36:59;;;;;;;6.55;0.88;;;;;;;16.04;85.84;100774.84;5031830;28;20040;-65
2022/10/08 07:39:26;;;;;;;1.80;1.00;;;;;;;16.35;84.85;100772.47;5035939;28;20034;-66
2022/10/08 07:41:52;;;;;;;2.20;1.02;;;;;;;16.37;83.41;100784.53;5038579;28;20122;-65
2022/10/08 07:44:17;;;;;;;2.33;1.00;;;;;;;16.38;83.87;100786.06;5029669;28;20443;-65
2022/10/08 07:46:45;;;;;;;2.97;1.00;;;;;;;16.54;83.24;100786.47;5026241;23;20058;-71
2022/10/08 07:49:14;;;;;;;2.67;1.15;;;;;;;16.82;83.12;100780.94;4989167;28;20038;-71
2022/10/08 07:51:42;;;;;;;2.40;0.98;;;;;;;16.88;82.86;100787.53;4987516;28;20030;-72
2022/10/08 07:54:13;;;;;;;1.65;0.75;;;;;;;17.13;81.93;100781.97;4975877;28;20534;-72
2022/10/08 07:56:39;;;;;;;;;;;;;;;17.50;80.79;100784.94;4987944;28;20133;-72
2022/10/08 07:59:05;;;;;;;1.75;0.80;;;;;;;17.63;79.70;100790.72;4983878;28;20004;-71
2022/10/08 08:01:32;;;;;;;3.60;1.10;;;;;;;17.82;78.57;100792.91;4985854;28;20046;-72
2022/10/08 08:04:11;;;;;;;1.38;0.90;;;;;;;17.98;77.10;100806.84;4989464;28;20037;-72
2022/10/08 08:06:40;;;;;;;1.00;0.90;;;;;;;17.75;77.24;100801.16;4987417;28;20042;-71
2022/10/08 08:09:05;;;;;;;1.27;0.57;;;;;;;17.95;77.42;100800.22;4983556;28;20030;-72
2022/10/08 08:11:31;;;;;;;1.58;0.50;;;;;;;17.84;77.75;100810.44;4985826;28;20041;-71
2022/10/08 08:13:59;;;;;;;2.22;0.70;;;;;;;18.01;77.44;100812.25;4988353;28;20522;-71
2022/10/08 08:16:26;;;;;;;2.95;0.95;;;;;;;18.19;76.66;100814.84;4987288;28;20030;-71
2022/10/08 08:19:00;;;;;;;2.25;0.70;;;;;;;18.40;76.13;100830.25;4988354;28;20096;-72
2022/10/08 08:21:28;;;;;;;3.65;0.77;;;;;;;18.59;74.66;100826.97;4987292;28;20070;-71
2022/10/08 08:23:56;;;;;;;0.38;0.30;;;;;;;18.40;74.93;100831.03;4988643;28;20150;-71
2022/10/08 08:26:27;;;;;;;1.65;0.52;;;;;;;18.49;74.75;100827.84;4976848;28;20089;-72
2022/10/08 08:28:55;;;;;;;2.15;0.32;;;;;;;18.23;75.89;100833.88;4987945;28;20052;-72
2022/10/08 08:31:24;;;;;;;1.90;0.95;;;;;;;18.08;75.75;100835.19;4988600;28;20046;-71
2022/10/08 08:33:52;;;;;;;4.20;0.52;;;;;;;17.79;76.25;100846.25;4984151;28;20053;-71
2022/10/08 08:36:22;;;;;;;1.25;0.68;;;;;;;17.48;77.55;100847.19;4987020;28;20034;-71
2022/10/08 08:38:47;;;;;;;0.65;0.50;;;;;;;17.46;78.16;100852.25;4990292;28;20498;-71
2022/10/08 08:41:45;;;;;;;3.10;0.90;;;;;;;17.96;76.50;100852.78;4985399;28;20046;-71
2022/10/08 08:44:16;;;;;;;2.50;0.55;;;;;;;18.07;75.24;100856.22;4986333;28;20054;-72
2022/10/08 08:46:45;;;;;;;1.75;0.50;;;;;;;18.33;74.28;100855.59;4999281;28;20418;-72
2022/10/08 08:49:32;;;;;;;1.20;0.52;;;;;;;18.79;73.14;100857.97;4985841;28;20779;-72
2022/10/08 08:52:00;;;;;;;1.70;0.50;;;;;;;18.79;71.87;100874.34;4989361;28;20061;-72
2022/10/08 08:54:26;;;;;;;0.60;0.50;;;;;;;18.71;71.86;100867.41;5003155;28;20038;-71
2022/10/08 08:56:52;;;;;;;2.70;0.52;;;;;;;19.04;71.28;100871.34;5005289;28;20038;-72
2022/10/08 08:59:23;;;;;;;2.47;0.40;;;;;;;19.15;70.81;100870.06;4984301;28;20045;-71
2022/10/08 09:01:52;;;;;;;0.77;0.40;;;;;;;18.95;70.53;100863.63;4986523;28;20042;-71
2022/10/08 09:04:43;;;;;;;1.17;0.45;;;;;;;18.93;70.08;100864.03;4987321;28;20084;-71
2022/10/08 09:07:13;;;;;;;2.05;0.43;;;;;;;19.09;71.11;100871.69;4987439;28;20577;-69
2022/10/08 09:09:57;;;;;;;3.15;0.50;;;;;;;19.11;70.96;100869.31;4981857;28;20061;-70
2022/10/08 09:12:35;;;;;;;0.32;0.30;;;;;;;19.07;70.99;100870.53;4986977;28;20125;-70
2022/10/08 09:15:02;;;;;;;2.38;0.22;;;;;;;18.86;70.91;100877.00;4977611;28;20042;-69
2022/10/08 09:17:35;;;;;;;1.30;0.30;;;;;;;19.02;70.52;100879.16;4979750;28;20053;-70
2022/10/08 09:20:01;;;;;;;4.15;0.88;;;;;;;19.15;69.93;100878.25;4980700;28;20298;-69
2022/10/08 09:22:31;;;;;;;1.50;0.60;;;;;;;18.85;69.65;100880.91;4982085;28;20122;-69
2022/10/08 09:25:03;;;;;;;4.00;0.55;;;;;;;18.59;71.15;100887.00;4982871;28;20042;-70
2022/10/08 09:28:04;;;;;;;0.73;0.50;;;;;;;18.59;70.67;100893.22;4980908;28;20526;-70
2022/10/08 09:30:35;;;;;;;4.15;0.80;;;;;;;18.54;71.29;100885.47;4943606;29;20055;-70
2022/10/08 09:33:15;;;;;;;3.03;0.45;;;;;;;18.41;72.78;100880.88;4975970;28;20076;-69
2022/10/08 09:35:46;;;;;;;3.38;0.40;;;;;;;18.50;72.50;100886.69;4984174;28;20125;-69
2022/10/08 09:38:28;;;;;;;2.25;0.65;;;;;;;18.43;72.55;100884.78;4986106;28;20153;-69
2022/10/08 09:41:01;;;;;;;0.40;0.32;;;;;;;18.63;75.42;100893.97;4984157;28;20042;-69
2022/10/08 09:43:26;;;;;;;2.85;0.30;;;;;;;18.70;78.89;100891.19;5002877;28;20124;-68
2022/10/08 09:45:53;;;;;;;6.53;0.40;;;;;;;18.69;78.47;100880.66;4990289;28;20505;-69
2022/10/08 09:48:28;;;;;;;4.75;0.40;;;;;;;18.73;78.80;100881.41;4997217;28;20046;-68
2022/10/08 09:51:05;;;;;;;3.30;0.47;;;;;;;18.76;76.67;100884.09;4985425;28;20081;-69
2022/10/08 09:53:44;;;;;;;3.05;0.45;;;;;;;19.25;75.45;100896.47;5005127;28;20042;-68
2022/10/08 09:56:12;;;;;;;0.77;0.47;;;;;;;19.23;73.29;100889.88;4991959;28;20501;-68
2022/10/08 09:58:59;;;;;;;0.40;0.32;;;;;;;19.42;69.90;100898.25;4990669;28;20037;-69
2022/10/08 10:01:26;;;;;;;2.92;0.85;;;;;;;19.44;67.64;100906.03;4986642;28;20176;-68
2022/10/08 10:03:59;;;;;;;0.60;0.38;;;;;;;19.69;67.57;100909.25;4986422;28;20038;-68
2022/10/08 10:06:28;;;;;;;0.60;0.20;;;;;;;19.82;66.92;100906.75;4984437;28;20038;-69
2022/10/08 10:09:00;;;;;;;0.85;0.32;;;;;;;19.71;65.14;100895.94;4992775;28;20022;-68
2022/10/08 10:11:31;;;;;;;0.93;0.30;;;;;;;19.47;64.33;100916.91;4990698;28;20426;-69
2022/10/08 10:14:01;;;;;;;0.98;0.28;;;;;;;19.57;64.22;100913.28;4991185;28;20165;-68
2022/10/08 10:16:35;;;;;;;1.70;0.35;;;;;;;19.39;63.83;100909.22;4991321;28;20384;-68
2022/10/08 10:19:09;;;;;;;1.02;0.50;;;;;;;19.58;62.99;100903.91;4988448;28;20041;-69
2022/10/08 10:21:58;;;;;;;0.98;0.25;;;;;;;19.82;61.44;100906.75;4988397;28;20136;-69
2022/10/08 10:24:41;;;;;;;1.05;0.30;;;;;;;19.93;58.48;100908.16;4987790;28;20057;-69
2022/10/08 10:27:20;;;;;;;0.60;0.35;;;;;;;20.01;59.03;100909.59;4991025;28;20403;-69
2022/10/08 10:29:58;;;;;;;3.42;0.10;;;;;;;19.68;58.36;100908.50;5005703;28;20061;-69
2022/10/08 10:32:31;;;;;;;0.30;0.20;;;;;;;19.83;57.42;100908.28;4982590;28;20446;-69
2022/10/08 10:35:03;;;;;;;1.85;0.20;;;;;;;19.61;57.77;100908.56;4984162;28;20106;-69
2022/10/08 10:37:40;;;;;;;0.28;0.20;;;;;;;19.88;57.91;100910.56;4988394;28;20026;-69
2022/10/08 10:40:19;;;;;;;0.95;0.50;;;;;;;20.04;56.74;100905.25;4984666;28;20394;-69
2022/10/08 10:43:11;;;;;;;0.88;0.20;;;;;;;19.95;56.21;100911.25;4988059;28;20042;-70
2022/10/08 10:45:39;;;;;;;1.70;0.20;;;;;;;19.84;56.38;100910.59;4975040;28;20070;-70
2022/10/08 10:48:07;;;;;;;1.10;0.38;;;;;;;19.60;57.43;100907.03;4984481;28;20037;-70
2022/10/08 10:50:53;;;;;;;1.35;0.30;;;;;;;19.20;58.93;100902.38;4989883;28;20026;-70
2022/10/08 10:53:47;;;;;;;0.32;0.20;;;;;;;19.50;60.05;100913.38;4986519;28;20434;-70
2022/10/08 10:56:16;;;;;;;0.17;0.15;;;;;;;19.52;59.77;100908.28;4985600;28;20436;-70
2022/10/08 10:59:16;;;;;;;0.60;0.25;;;;;;;19.72;59.10;100914.66;4990821;28;20065;-70
2022/10/08 11:02:10;;;;;;;0.75;0.22;;;;;;;20.01;58.07;100920.53;4982471;28;20046;-70
2022/10/08 11:04:53;;;;;;;0.82;0.20;;;;;;;19.66;55.13;100919.06;4986990;28;20096;-70
2022/10/08 11:07:34;;;;;;;0.22;0.10;;;;;;;19.58;56.82;100925.78;4989322;28;20125;-70
2022/10/08 11:10:18;;;;;;;1.65;0.20;;;;;;;19.50;57.08;100924.31;5003591;28;20128;-70
2022/10/08 11:12:55;;;;;;;1.55;0.10;;;;;;;19.14;56.29;100928.59;4987809;28;20048;-70
2022/10/08 11:15:33;;;;;;;0.10;0.10;;;;;;;18.89;56.16;100922.59;4984236;28;20042;-70
2022/10/08 11:18:26;;;;;;;0.22;0.10;;;;;;;18.76;56.84;100921.53;4984531;28;20043;-70
2022/10/08 11:21:18;;;;;;;4.88;0.20;;;;;;;18.27;58.18;100919.19;4978382;28;20078;-70
2022/10/08 11:23:53;;;;;;;1.27;0.20;;;;;;;18.23;59.27;100926.59;4980785;28;20038;-70
2022/10/08 11:26:24;;;;;;;1.00;0.28;;;;;;;18.17;59.30;100928.19;4980844;28;20422;-70
2022/10/08 11:29:17;;;;;;;1.48;0.68;;;;;;;18.10;65.43;100930.97;4989558;28;20418;-70
2022/10/08 11:31:48;;;;;;;0.35;0.20;;;;;;;18.11;67.24;100935.25;4988405;28;20274;-70
2022/10/08 11:34:21;;;;;;;0.43;0.20;;;;;;;18.05;69.28;100934.88;4981702;28;20130;-70
2022/10/08 11:37:19;;;;;;;3.15;0.50;;;;;;;18.25;67.71;100932.44;4982555;28;20038;-71
2022/10/08 11:39:59;;;;;;;3.00;0.40;;;;;;;17.96;68.17;100951.66;4977525;28;20054;-70
2022/10/08 11:42:43;;;;;;;0.63;0.20;;;;;;;17.87;68.52;100956.78;4985101;28;20149;-70
2022/10/08 11:45:24;;;;;;;0.85;0.30;;;;;;;17.53;76.58;100983.00;4982476;28;20136;-69
2022/10/08 11:47:52;;;;;;;;;;;;;;;17.39;80.17;100991.16;4988009;28;20046;-69